createdAt,value
2023-04-21T00:01:08.600Z,7.34
2023-04-21T00:03:35.819Z,7.31
2023-04-21T00:06:02.959Z,7.29
2023-04-21T00:08:29.982Z,7.26
2023-04-21T00:10:57.029Z,7.25
2023-04-21T00:13:24.092Z,7.24
2023-04-21T00:15:51.196Z,7.20
2023-04-21T00:18:18.626Z,7.19
2023-04-21T00:20:45.679Z,7.17
2023-04-21T00:23:12.708Z,7.14
2023-04-21T00:25:39.791Z,7.13
2023-04-21T00:28:06.802Z,7.11
2023-04-21T00:30:33.944Z,7.09
2023-04-21T00:33:00.991Z,7.05
2023-04-21T00:35:28.053Z,7.03
2023-04-21T00:37:55.091Z,7.00
2023-04-21T00:40:22.164Z,6.99
2023-04-21T00:42:49.228Z,6.97
2023-04-21T00:45:16.257Z,6.96
2023-04-21T00:47:43.394Z,6.94
2023-04-21T00:50:10.490Z,6.94
2023-04-21T00:52:37.523Z,6.91
2023-04-21T00:55:04.556Z,6.89
2023-04-21T00:57:31.599Z,6.87
2023-04-21T00:59:58.676Z,6.87
2023-04-21T01:02:25.796Z,6.85
2023-04-21T01:04:52.925Z,6.83
2023-04-21T01:07:19.981Z,6.82
2023-04-21T01:09:47.002Z,6.79
2023-04-21T01:12:14.405Z,6.77
2023-04-21T01:14:41.477Z,6.74
2023-04-21T01:17:08.542Z,6.73
2023-04-21T01:19:35.567Z,6.71
2023-04-21T01:22:02.655Z,6.69
2023-04-21T01:24:29.695Z,6.67
2023-04-21T01:26:56.683Z,6.63
2023-04-21T01:29:23.696Z,6.63
2023-04-21T01:31:50.875Z,6.61
2023-04-21T01:34:17.934Z,6.59
2023-04-21T01:36:44.952Z,6.57
2023-04-21T01:39:12.000Z,6.54
2023-04-21T01:41:39.042Z,6.52
2023-04-21T01:44:06.240Z,6.49
2023-04-21T01:46:33.341Z,6.48
2023-04-21T01:49:00.477Z,6.45
2023-04-21T01:51:27.543Z,6.44
2023-04-21T01:53:54.590Z,6.44
2023-04-21T01:56:21.716Z,6.41
2023-04-21T01:58:48.796Z,6.38
2023-04-21T02:01:15.882Z,6.37
2023-04-21T02:03:43.118Z,6.34
2023-04-21T02:06:10.242Z,6.33
2023-04-21T02:08:37.278Z,6.31
2023-04-21T02:11:04.293Z,6.29
2023-04-21T02:13:31.333Z,6.27
2023-04-21T02:16:12.176Z,6.25
2023-04-21T02:18:40.735Z,6.22
2023-04-21T02:21:07.781Z,6.21
2023-04-21T02:23:34.807Z,6.18
2023-04-21T02:26:01.847Z,6.17
2023-04-21T02:28:28.899Z,6.17
2023-04-21T02:30:55.965Z,6.13
2023-04-21T02:33:23.144Z,6.13
2023-04-21T02:35:50.229Z,6.10
2023-04-21T02:38:17.265Z,6.08
2023-04-21T02:40:44.301Z,6.07
2023-04-21T02:43:11.315Z,6.06
2023-04-21T02:45:38.665Z,6.03
2023-04-21T02:48:06.328Z,6.01
2023-04-21T02:50:33.378Z,5.98
2023-04-21T02:53:00.404Z,5.96
2023-04-21T02:55:27.480Z,5.94
2023-04-21T02:57:54.485Z,5.92
2023-04-21T03:00:21.567Z,5.90
2023-04-21T03:02:48.762Z,5.87
2023-04-21T03:05:15.946Z,5.85
2023-04-21T03:07:42.994Z,5.84
2023-04-21T03:10:10.041Z,5.82
2023-04-21T03:12:37.075Z,5.81
2023-04-21T03:15:04.124Z,5.80
2023-04-21T03:17:33.167Z,5.78
2023-04-21T03:20:00.512Z,5.78
2023-04-21T03:22:27.557Z,5.76
2023-04-21T03:24:54.622Z,5.74
2023-04-21T03:27:21.657Z,5.74
2023-04-21T03:29:48.657Z,5.73
2023-04-21T03:32:15.863Z,5.73
2023-04-21T03:34:42.979Z,5.72
2023-04-21T03:37:10.032Z,5.72
2023-04-21T03:39:37.066Z,5.71
2023-04-21T03:42:04.084Z,5.70
2023-04-21T03:44:31.165Z,5.71
2023-04-21T03:46:58.655Z,5.70
2023-04-21T03:49:25.710Z,5.69
2023-04-21T03:51:52.729Z,5.68
2023-04-21T03:54:19.846Z,5.69
2023-04-21T03:56:46.870Z,5.68
2023-04-21T03:59:13.909Z,5.68
2023-04-21T04:01:40.945Z,5.67
2023-04-21T04:04:08.204Z,5.68
2023-04-21T04:06:35.442Z,5.68
2023-04-21T04:09:02.747Z,5.68
2023-04-21T04:11:29.826Z,5.68
2023-04-21T04:13:56.870Z,5.68
2023-04-21T04:16:24.015Z,5.69
2023-04-21T04:18:51.117Z,5.70
2023-04-21T04:21:18.142Z,5.69
2023-04-21T04:23:45.202Z,5.69
2023-04-21T04:26:12.274Z,5.71
2023-04-21T04:28:39.352Z,5.71
2023-04-21T04:31:07.674Z,5.71
2023-04-21T04:33:34.774Z,5.72
2023-04-21T04:36:01.851Z,5.72
2023-04-21T04:38:28.857Z,5.73
2023-04-21T04:40:55.878Z,5.75
2023-04-21T04:43:22.896Z,5.76
2023-04-21T04:45:49.911Z,5.77
2023-04-21T04:48:16.925Z,5.79
2023-04-21T04:50:44.307Z,5.79
2023-04-21T04:53:11.358Z,5.81
2023-04-21T04:55:38.400Z,5.81
2023-04-21T04:58:05.500Z,5.83
2023-04-21T05:00:32.542Z,5.83
2023-04-21T05:02:59.747Z,5.84
2023-04-21T05:05:26.884Z,5.85
2023-04-21T05:07:53.974Z,5.86
2023-04-21T05:10:21.130Z,5.87
2023-04-21T05:12:48.279Z,5.88
2023-04-21T05:15:15.300Z,5.89
2023-04-21T05:17:43.301Z,5.93
2023-04-21T05:20:10.401Z,5.94
2023-04-21T05:22:37.458Z,5.95
2023-04-21T05:25:04.530Z,5.97
2023-04-21T05:27:31.577Z,5.99
2023-04-21T05:29:58.665Z,6.02
2023-04-21T05:32:25.720Z,6.04
2023-04-21T05:34:52.887Z,6.06
2023-04-21T05:37:19.885Z,6.07
2023-04-21T05:39:46.881Z,6.10
2023-04-21T05:42:13.909Z,6.14
2023-04-21T05:44:40.953Z,6.17
2023-04-21T05:47:08.037Z,6.22
2023-04-21T05:49:35.048Z,6.27
2023-04-21T05:52:02.165Z,6.30
2023-04-21T05:54:29.221Z,6.35
2023-04-21T05:56:56.239Z,6.39
2023-04-21T05:59:23.266Z,6.43
2023-04-21T06:01:50.303Z,6.49
2023-04-21T06:04:17.598Z,6.53
2023-04-21T06:06:44.825Z,6.60
2023-04-21T06:09:14.081Z,6.67
2023-04-21T06:11:41.119Z,6.72
2023-04-21T06:14:08.152Z,6.80
2023-04-21T06:16:37.951Z,6.87
2023-04-21T06:19:05.185Z,6.96
2023-04-21T06:21:32.204Z,7.03
2023-04-21T06:24:01.713Z,7.14
2023-04-21T06:26:28.728Z,7.22
2023-04-21T06:28:55.724Z,7.31
2023-04-21T06:31:22.803Z,7.44
2023-04-21T06:33:49.885Z,7.55
2023-04-21T06:36:18.117Z,7.70
2023-04-21T06:38:45.345Z,7.89
2023-04-21T06:41:12.358Z,8.12
2023-04-21T06:43:39.383Z,8.41
2023-04-21T06:46:06.426Z,8.73
2023-04-21T06:48:33.474Z,9.05
2023-04-21T06:51:00.491Z,9.39
2023-04-21T06:53:27.591Z,9.73
2023-04-21T06:55:54.606Z,10.10
2023-04-21T06:58:21.679Z,10.46
2023-04-21T07:00:48.729Z,10.81
2023-04-21T07:03:15.992Z,11.16
2023-04-21T07:05:43.162Z,11.52
2023-04-21T07:08:10.191Z,11.83
2023-04-21T07:10:37.256Z,12.18
2023-04-21T07:13:04.305Z,12.52
2023-04-21T07:15:31.351Z,12.85
2023-04-21T07:17:58.422Z,13.16
2023-04-21T07:20:25.463Z,13.45
2023-04-21T07:22:52.501Z,13.77
2023-04-21T07:25:19.544Z,14.08
2023-04-21T07:27:46.576Z,14.37
2023-04-21T07:30:13.635Z,14.67
2023-04-21T07:32:40.695Z,14.98
2023-04-21T07:35:07.865Z,15.25
2023-04-21T07:37:34.988Z,15.53
2023-04-21T07:40:02.028Z,15.80
2023-04-21T07:42:29.060Z,16.07
2023-04-21T07:44:56.141Z,16.27
2023-04-21T07:47:23.441Z,16.52
2023-04-21T07:49:50.662Z,16.73
2023-04-21T07:52:17.722Z,16.96
2023-04-21T07:54:44.755Z,17.14
2023-04-21T07:57:14.314Z,17.31
2023-04-21T07:59:43.683Z,17.51
2023-04-21T08:02:10.790Z,17.69
2023-04-21T08:04:38.195Z,17.89
2023-04-21T08:07:05.520Z,18.05
2023-04-21T08:09:32.609Z,18.22
2023-04-21T08:11:59.633Z,18.39
2023-04-21T08:14:26.846Z,18.57
2023-04-21T08:16:56.594Z,18.74
2023-04-21T08:19:24.209Z,18.93
2023-04-21T08:21:51.252Z,19.11
2023-04-21T08:24:18.796Z,19.29
2023-04-21T08:26:46.120Z,19.48
2023-04-21T08:29:13.183Z,19.65
2023-04-21T08:31:40.262Z,19.77
2023-04-21T08:34:08.467Z,19.84
2023-04-21T08:36:35.529Z,19.88
2023-04-21T08:39:02.600Z,19.88
2023-04-21T08:41:29.629Z,19.85
2023-04-21T08:43:56.684Z,19.83
2023-04-21T08:46:23.842Z,19.83
2023-04-21T08:48:52.239Z,19.81
2023-04-21T08:51:20.109Z,19.82
2023-04-21T08:53:47.178Z,19.80
2023-04-21T08:56:14.207Z,19.77
2023-04-21T08:58:41.973Z,19.73
2023-04-21T09:01:09.243Z,19.72
2023-04-21T09:03:36.436Z,19.70
2023-04-21T09:06:03.938Z,19.70
2023-04-21T09:08:31.427Z,19.69
2023-04-21T09:10:58.474Z,19.67
2023-04-21T09:13:25.524Z,19.65
2023-04-21T09:15:52.962Z,19.69
2023-04-21T09:18:20.489Z,19.68
2023-04-21T09:20:47.489Z,19.67
2023-04-21T09:23:14.542Z,19.71
2023-04-21T09:25:41.571Z,19.75
2023-04-21T09:28:08.582Z,19.77
2023-04-21T09:30:35.805Z,19.79
2023-04-21T09:33:08.257Z,19.82
2023-04-21T09:35:40.754Z,19.86
2023-04-21T09:38:07.774Z,19.88
2023-04-21T09:40:34.803Z,19.94
2023-04-21T09:43:01.844Z,20.01
2023-04-21T09:45:39.070Z,20.04
2023-04-21T09:48:07.056Z,20.10
2023-04-21T09:51:11.378Z,20.13
2023-04-21T09:53:21.220Z,20.15
2023-04-21T09:55:48.343Z,20.17
2023-04-21T09:58:15.551Z,20.19
2023-04-21T10:00:42.641Z,20.22
2023-04-21T10:03:10.261Z,20.26
2023-04-21T10:05:39.369Z,20.31
2023-04-21T10:08:08.253Z,20.35
2023-04-21T10:10:35.530Z,20.39
2023-04-21T10:13:02.518Z,20.42
2023-04-21T10:15:29.601Z,20.47
2023-04-21T10:17:56.745Z,20.49
2023-04-21T10:20:23.923Z,20.53
2023-04-21T10:22:50.950Z,20.58
2023-04-21T10:25:17.957Z,20.61
2023-04-21T10:27:44.992Z,20.62
2023-04-21T10:30:12.008Z,20.67
2023-04-21T10:32:39.105Z,20.68
2023-04-21T10:35:06.145Z,20.71
2023-04-21T10:37:33.160Z,20.77
2023-04-21T10:40:00.330Z,20.80
2023-04-21T10:42:27.397Z,20.82
2023-04-21T10:44:54.506Z,20.83
2023-04-21T10:47:21.840Z,20.84
2023-04-21T10:49:48.912Z,20.84
2023-04-21T10:52:15.933Z,20.81
2023-04-21T10:54:42.954Z,20.76
2023-04-21T10:57:10.062Z,20.74
2023-04-21T10:59:37.124Z,20.67
2023-04-21T11:02:04.232Z,20.64
2023-04-21T11:04:31.479Z,20.57
2023-04-21T11:06:58.806Z,20.51
2023-04-21T11:09:25.826Z,20.46
2023-04-21T11:11:52.855Z,20.36
2023-04-21T11:14:19.970Z,20.26
2023-04-21T11:16:47.200Z,20.17
2023-04-21T11:19:14.291Z,20.08
2023-04-21T11:21:41.314Z,19.99
2023-04-21T11:24:08.323Z,19.93
2023-04-21T11:26:35.418Z,19.85
2023-04-21T11:29:02.444Z,19.76
2023-04-21T11:31:29.760Z,19.65
2023-04-21T11:33:56.966Z,19.54
2023-04-21T11:36:24.036Z,19.46
2023-04-21T11:38:51.107Z,19.35
2023-04-21T11:41:18.141Z,19.28
2023-04-21T11:43:45.194Z,19.18
2023-04-21T11:46:12.290Z,19.11
2023-04-21T11:48:39.548Z,19.03
2023-04-21T11:51:06.728Z,18.95
2023-04-21T11:53:33.779Z,18.88
2023-04-21T11:56:00.890Z,18.80
2023-04-21T11:58:27.897Z,18.72
2023-04-21T12:00:55.001Z,18.69
2023-04-21T12:03:22.305Z,18.61
2023-04-21T12:05:49.483Z,18.53
2023-04-21T12:08:16.633Z,18.48
2023-04-21T12:10:43.684Z,18.42
2023-04-21T12:13:11.153Z,18.36
2023-04-21T12:15:38.193Z,18.29
2023-04-21T12:18:05.297Z,18.24
2023-04-21T12:20:32.531Z,18.18
2023-04-21T12:22:59.697Z,18.12
2023-04-21T12:25:26.757Z,18.07
2023-04-21T12:27:53.817Z,18.03
2023-04-21T12:30:20.945Z,17.95
2023-04-21T12:32:47.991Z,17.85
2023-04-21T12:35:15.056Z,17.74
2023-04-21T12:37:42.069Z,17.66
2023-04-21T12:40:09.461Z,17.47
2023-04-21T12:42:38.192Z,17.33
2023-04-21T12:45:05.598Z,17.19
2023-04-21T12:47:32.760Z,17.13
2023-04-21T12:49:59.990Z,17.11
2023-04-21T12:52:27.047Z,17.09
2023-04-21T12:54:54.066Z,17.02
2023-04-21T12:57:21.157Z,17.01
2023-04-21T12:59:48.332Z,16.99
2023-04-21T13:02:15.607Z,16.99
2023-04-21T13:04:42.885Z,16.94
2023-04-21T13:07:09.940Z,16.87
2023-04-21T13:09:37.029Z,16.86
2023-04-21T13:12:04.073Z,16.87
2023-04-21T13:14:31.165Z,16.87
2023-04-21T13:16:58.250Z,16.92
2023-04-21T13:19:25.305Z,16.96
2023-04-21T13:21:54.198Z,17.04
2023-04-21T13:24:21.494Z,17.09
2023-04-21T13:26:48.519Z,17.14
2023-04-21T13:29:15.558Z,17.19
2023-04-21T13:31:42.614Z,17.22
2023-04-21T13:34:09.621Z,17.27
2023-04-21T13:36:36.679Z,17.30
2023-04-21T13:39:03.785Z,17.35
2023-04-21T13:41:30.828Z,17.38
2023-04-21T13:43:57.925Z,17.38
2023-04-21T13:46:25.051Z,17.40
2023-04-21T13:48:52.168Z,17.41
2023-04-21T13:51:19.243Z,17.43
2023-04-21T13:53:46.347Z,17.45
2023-04-21T13:56:13.391Z,17.47
2023-04-21T13:58:40.473Z,17.49
2023-04-21T14:01:07.522Z,17.51
2023-04-21T14:03:34.767Z,17.51
2023-04-21T14:06:02.018Z,17.52
2023-04-21T14:08:29.289Z,17.53
2023-04-21T14:10:56.574Z,17.55
2023-04-21T14:13:35.720Z,17.57
2023-04-21T14:16:09.525Z,17.58
2023-04-21T14:18:36.633Z,17.62
2023-04-21T14:21:03.948Z,17.64
2023-04-21T14:23:30.965Z,17.65
2023-04-21T14:25:58.406Z,17.66
2023-04-21T14:28:25.495Z,17.68
2023-04-21T14:30:53.499Z,17.70
2023-04-21T14:33:20.601Z,17.72
2023-04-21T14:35:47.674Z,17.73
2023-04-21T14:38:14.707Z,17.76
2023-04-21T14:40:41.759Z,17.78
2023-04-21T14:43:08.821Z,17.80
2023-04-21T14:45:35.901Z,17.81
2023-04-21T14:48:03.258Z,17.81
2023-04-21T14:50:30.379Z,17.85
2023-04-21T14:52:57.418Z,17.85
2023-04-21T14:55:24.441Z,17.87
2023-04-21T14:57:51.484Z,17.87
2023-04-21T15:00:18.526Z,17.87
2023-04-21T15:02:45.691Z,17.87
2023-04-21T15:05:13.201Z,17.89
2023-04-21T15:07:40.246Z,17.90
2023-04-21T15:10:07.326Z,17.91
2023-04-21T15:12:36.374Z,17.91
2023-04-21T15:15:03.674Z,17.93
2023-04-21T15:17:30.750Z,17.93
2023-04-21T15:19:57.795Z,17.93
2023-04-21T15:22:24.800Z,17.91
2023-04-21T15:24:53.114Z,17.93
2023-04-21T15:27:21.450Z,17.94
2023-04-21T15:29:48.474Z,17.95
2023-04-21T15:32:15.552Z,17.96
2023-04-21T15:34:42.607Z,17.99
2023-04-21T15:37:09.679Z,17.99
2023-04-21T15:39:36.914Z,18.01
2023-04-21T15:42:04.441Z,18.06
2023-04-21T15:44:31.671Z,18.07
2023-04-21T15:46:58.844Z,18.07
2023-04-21T15:49:26.309Z,18.13
2023-04-21T15:51:53.502Z,18.15
2023-04-21T15:54:20.594Z,18.19
2023-04-21T15:56:47.627Z,18.23
2023-04-21T15:59:14.731Z,18.28
2023-04-21T16:01:41.825Z,18.32
2023-04-21T16:04:09.062Z,18.34
2023-04-21T16:06:36.459Z,18.40
2023-04-21T16:09:03.533Z,18.45
2023-04-21T16:11:30.605Z,18.51
2023-04-21T16:13:57.938Z,18.56
2023-04-21T16:16:25.184Z,18.63
2023-04-21T16:18:52.398Z,18.70
2023-04-21T16:21:19.576Z,18.77
2023-04-21T16:23:46.567Z,18.85
2023-04-21T16:26:13.715Z,18.92
2023-04-21T16:28:40.795Z,18.98
2023-04-21T16:31:07.974Z,19.06
2023-04-21T16:33:36.064Z,19.14
2023-04-21T16:36:03.172Z,19.20
2023-04-21T16:38:30.211Z,19.29
2023-04-21T16:40:57.370Z,19.36
2023-04-21T16:43:24.397Z,19.44
2023-04-21T16:45:51.549Z,19.52
2023-04-21T16:48:18.610Z,19.59
2023-04-21T16:50:45.785Z,19.66
2023-04-21T16:53:12.828Z,19.74
2023-04-21T16:55:39.845Z,19.81
2023-04-21T16:58:06.878Z,19.88
2023-04-21T17:00:33.976Z,19.96
2023-04-21T17:03:01.215Z,20.04
2023-04-21T17:05:28.403Z,20.10
2023-04-21T17:07:55.453Z,20.16
2023-04-21T17:10:22.469Z,20.24
2023-04-21T17:12:49.479Z,20.29
2023-04-21T17:15:16.537Z,20.35
2023-04-21T17:17:43.637Z,20.39
2023-04-21T17:20:10.770Z,20.45
2023-04-21T17:22:37.959Z,20.47
2023-04-21T17:25:05.027Z,20.53
2023-04-21T17:27:32.055Z,20.56
2023-04-21T17:29:59.108Z,20.58
2023-04-21T17:32:26.217Z,20.61
2023-04-21T17:34:53.291Z,20.63
2023-04-21T17:37:20.337Z,20.64
2023-04-21T17:39:47.375Z,20.64
2023-04-21T17:42:14.417Z,20.65
2023-04-21T17:44:41.559Z,20.66
2023-04-21T17:47:08.629Z,20.73
2023-04-21T17:49:35.636Z,20.84
2023-04-21T17:52:02.627Z,20.97
2023-04-21T17:54:29.658Z,21.13
2023-04-21T17:56:56.693Z,21.28
2023-04-21T17:59:23.730Z,21.42
2023-04-21T18:01:50.848Z,21.53
2023-04-21T18:04:18.189Z,21.63
2023-04-21T18:06:45.325Z,21.74
2023-04-21T18:09:12.369Z,21.83
2023-04-21T18:11:39.411Z,21.89
2023-04-21T18:14:06.441Z,21.95
2023-04-21T18:16:33.579Z,22.00
2023-04-21T18:19:00.744Z,22.04
2023-04-21T18:21:27.755Z,22.09
2023-04-21T18:23:54.947Z,22.12
2023-04-21T18:26:21.955Z,22.14
2023-04-21T18:28:48.960Z,22.16
2023-04-21T18:31:16.061Z,22.17
2023-04-21T18:33:43.128Z,22.15
2023-04-21T18:36:10.245Z,22.14
2023-04-21T18:38:37.497Z,22.12
2023-04-21T18:41:04.522Z,22.08
2023-04-21T18:43:31.533Z,22.06
2023-04-21T18:45:58.574Z,22.03
2023-04-21T18:48:25.599Z,21.98
2023-04-21T18:50:52.733Z,21.93
2023-04-21T18:53:19.806Z,21.89
2023-04-21T18:55:46.880Z,21.84
2023-04-21T18:58:13.905Z,21.78
2023-04-21T19:00:40.962Z,21.74
2023-04-21T19:03:08.144Z,21.68
2023-04-21T19:05:35.357Z,21.62
2023-04-21T19:08:02.479Z,21.56
2023-04-21T19:10:29.507Z,21.50
2023-04-21T19:12:56.579Z,21.44
2023-04-21T19:15:26.097Z,21.38
2023-04-21T19:17:53.208Z,21.28
2023-04-21T19:20:20.304Z,21.21
2023-04-21T19:22:47.348Z,21.12
2023-04-21T19:25:14.382Z,21.04
2023-04-21T19:27:41.446Z,20.96
2023-04-21T19:30:08.921Z,20.88
2023-04-21T19:32:36.034Z,20.79
2023-04-21T19:35:03.101Z,20.70
2023-04-21T19:37:32.931Z,20.61
2023-04-21T19:40:01.576Z,20.52
2023-04-21T19:42:28.619Z,20.43
2023-04-21T19:44:55.672Z,20.35
2023-04-21T19:47:22.714Z,20.26
2023-04-21T19:49:49.762Z,20.16
2023-04-21T19:52:17.408Z,20.07
2023-04-21T19:54:44.524Z,19.97
2023-04-21T19:57:11.524Z,19.90
2023-04-21T19:59:38.748Z,19.81
2023-04-21T20:02:06.292Z,19.71
2023-04-21T20:04:33.415Z,19.60
2023-04-21T20:07:00.847Z,19.51
2023-04-21T20:09:31.232Z,19.38
2023-04-21T20:11:58.263Z,19.28
2023-04-21T20:14:25.311Z,19.18
2023-04-21T20:16:52.281Z,19.06
2023-04-21T20:19:19.341Z,19.00
2023-04-21T20:21:46.388Z,18.92
2023-04-21T20:24:13.429Z,18.84
2023-04-21T20:26:40.447Z,18.77
2023-04-21T20:29:07.499Z,18.69
2023-04-21T20:31:34.624Z,18.61
2023-04-21T20:34:01.676Z,18.55
2023-04-21T20:36:28.712Z,18.46
2023-04-21T20:38:55.742Z,18.38
2023-04-21T20:41:24.272Z,18.31
2023-04-21T20:43:51.280Z,18.24
2023-04-21T20:46:18.347Z,18.18
2023-04-21T20:48:45.455Z,18.13
2023-04-21T20:51:12.504Z,18.07
2023-04-21T20:53:39.581Z,18.02
2023-04-21T20:56:06.604Z,17.97
2023-04-21T20:58:33.665Z,17.92
2023-04-21T21:01:00.828Z,17.86
2023-04-21T21:03:28.082Z,17.81
2023-04-21T21:05:55.412Z,17.76
2023-04-21T21:08:22.458Z,17.69
2023-04-21T21:10:49.678Z,17.66
2023-04-21T21:13:16.713Z,17.58
2023-04-21T21:15:43.723Z,17.55
2023-04-21T21:18:10.843Z,17.51
2023-04-21T21:20:37.930Z,17.45
2023-04-21T21:23:04.977Z,17.38
2023-04-21T21:25:32.061Z,17.35
2023-04-21T21:27:59.052Z,17.29
2023-04-21T21:30:26.065Z,17.25
2023-04-21T21:32:53.149Z,17.20
2023-04-21T21:35:20.222Z,17.15
2023-04-21T21:37:47.260Z,17.11
2023-04-21T21:40:14.303Z,17.04
2023-04-21T21:42:41.399Z,17.00
2023-04-21T21:45:08.417Z,16.95
2023-04-21T21:47:38.253Z,16.92
2023-04-21T21:50:07.458Z,16.88
2023-04-21T21:52:34.468Z,16.83
2023-04-21T21:55:04.484Z,16.79
2023-04-21T21:57:31.533Z,16.75
2023-04-21T21:59:58.624Z,16.72
2023-04-21T22:02:25.724Z,16.67
2023-04-21T22:04:53.065Z,16.63
2023-04-21T22:07:20.160Z,16.60
2023-04-21T22:09:47.190Z,16.55
2023-04-21T22:12:14.213Z,16.51
2023-04-21T22:14:41.244Z,16.46
2023-04-21T22:17:08.321Z,16.41
2023-04-21T22:19:35.448Z,16.38
2023-04-21T22:22:02.521Z,16.34
2023-04-21T22:24:29.543Z,16.28
2023-04-21T22:26:56.572Z,16.23
2023-04-21T22:29:23.590Z,16.22
2023-04-21T22:31:50.692Z,16.20
2023-04-21T22:34:20.059Z,16.20
2023-04-21T22:36:49.525Z,16.18
2023-04-21T22:39:16.544Z,16.16
2023-04-21T22:41:43.538Z,16.14
2023-04-21T22:44:10.584Z,16.12
2023-04-21T22:46:37.941Z,16.10
2023-04-21T22:49:05.148Z,16.09
2023-04-21T22:51:32.388Z,16.07
2023-04-21T22:53:59.620Z,16.04
2023-04-21T22:56:26.666Z,16.00
2023-04-21T22:58:53.678Z,15.87
2023-04-21T23:01:20.998Z,15.70
2023-04-21T23:03:48.349Z,15.50
2023-04-21T23:06:15.485Z,15.27
2023-04-21T23:08:42.529Z,15.04
2023-04-21T23:11:09.563Z,14.83
2023-04-21T23:13:36.613Z,14.63
2023-04-21T23:16:03.709Z,14.44
2023-04-21T23:18:30.786Z,14.26
2023-04-21T23:20:57.783Z,14.09
2023-04-21T23:23:24.845Z,13.92
2023-04-21T23:25:51.878Z,13.75
2023-04-21T23:28:18.885Z,13.60
2023-04-21T23:30:45.917Z,13.46
2023-04-21T23:33:13.027Z,13.34
2023-04-21T23:35:40.093Z,13.21
2023-04-21T23:38:07.141Z,13.06
2023-04-21T23:40:34.208Z,12.95
2023-04-21T23:43:01.267Z,12.84
2023-04-21T23:45:30.612Z,12.72
2023-04-21T23:47:57.683Z,12.62
2023-04-21T23:50:24.726Z,12.51
2023-04-21T23:52:51.767Z,12.42
2023-04-21T23:55:18.770Z,12.33
2023-04-21T23:57:45.810Z,12.23
